sensor_id;sensor_type;location;lat;lon;timestamp;temperature;humidity
5786;DHT22;2919;48.630;9.000;2022-09-14T00:01:58;18.10;99.90
5786;DHT22;2919;48.630;9.000;2022-09-14T00:04:24;18.10;99.90
5786;DHT22;2919;48.630;9.000;2022-09-14T00:06:49;18.20;99.90
5786;DHT22;2919;48.630;9.000;2022-09-14T00:09:22;18.20;99.90
5786;DHT22;2919;48.630;9.000;2022-09-14T00:11:48;18.30;99.90
5786;DHT22;2919;48.630;9.000;2022-09-14T00:14:15;18.20;99.90
5786;DHT22;2919;48.630;9.000;2022-09-14T00:16:41;18.30;99.90
5786;DHT22;2919;48.630;9.000;2022-09-14T00:19:18;18.30;99.90
5786;DHT22;2919;48.630;9.000;2022-09-14T00:21:44;18.20;99.90
5786;DHT22;2919;48.630;9.000;2022-09-14T00:24:10;18.20;99.90
5786;DHT22;2919;48.630;9.000;2022-09-14T00:26:36;18.20;99.90
5786;DHT22;2919;48.630;9.000;2022-09-14T00:29:03;18.20;99.90
5786;DHT22;2919;48.630;9.000;2022-09-14T00:31:30;18.10;99.90
5786;DHT22;2919;48.630;9.000;2022-09-14T00:33:56;18.10;99.90
5786;DHT22;2919;48.630;9.000;2022-09-14T00:36:27;18.00;99.90
5786;DHT22;2919;48.630;9.000;2022-09-14T00:38:54;18.00;99.90
5786;DHT22;2919;48.630;9.000;2022-09-14T00:41:23;18.10;99.90
5786;DHT22;2919;48.630;9.000;2022-09-14T00:46:20;18.10;99.90
5786;DHT22;2919;48.630;9.000;2022-09-14T00:48:46;18.10;99.90
5786;DHT22;2919;48.630;9.000;2022-09-14T00:51:12;18.10;99.90
5786;DHT22;2919;48.630;9.000;2022-09-14T00:53:38;18.10;99.90
5786;DHT22;2919;48.630;9.000;2022-09-14T00:56:04;18.10;99.90
5786;DHT22;2919;48.630;9.000;2022-09-14T00:58:30;18.10;99.90
5786;DHT22;2919;48.630;9.000;2022-09-14T01:00:56;18.10;99.90
5786;DHT22;2919;48.630;9.000;2022-09-14T01:03:23;18.10;99.90
5786;DHT22;2919;48.630;9.000;2022-09-14T01:05:52;18.10;99.90
5786;DHT22;2919;48.630;9.000;2022-09-14T01:13:57;18.10;99.90
5786;DHT22;2919;48.630;9.000;2022-09-14T01:19:38;17.90;99.90
5786;DHT22;2919;48.630;9.000;2022-09-14T01:22:14;17.60;99.90
5786;DHT22;2919;48.630;9.000;2022-09-14T01:24:56;17.40;99.90
5786;DHT22;2919;48.630;9.000;2022-09-14T01:32:58;17.20;99.90
5786;DHT22;2919;48.630;9.000;2022-09-14T01:35:46;17.20;99.90
5786;DHT22;2919;48.630;9.000;2022-09-14T01:41:01;17.20;99.90
5786;DHT22;2919;48.630;9.000;2022-09-14T01:43:45;17.10;99.90
5786;DHT22;2919;48.630;9.000;2022-09-14T01:46:21;17.20;99.90
5786;DHT22;2919;48.630;9.000;2022-09-14T01:49:00;17.10;99.90
5786;DHT22;2919;48.630;9.000;2022-09-14T01:51:52;17.10;99.90
5786;DHT22;2919;48.630;9.000;2022-09-14T01:54:34;17.10;99.90
5786;DHT22;2919;48.630;9.000;2022-09-14T01:57:03;17.10;99.90
5786;DHT22;2919;48.630;9.000;2022-09-14T01:59:38;17.10;99.90
5786;DHT22;2919;48.630;9.000;2022-09-14T02:02:10;17.10;99.90
5786;DHT22;2919;48.630;9.000;2022-09-14T02:04:48;17.10;99.90
5786;DHT22;2919;48.630;9.000;2022-09-14T02:07:15;17.10;99.90
5786;DHT22;2919;48.630;9.000;2022-09-14T02:09:42;17.10;99.90
5786;DHT22;2919;48.630;9.000;2022-09-14T02:12:08;17.20;99.90
5786;DHT22;2919;48.630;9.000;2022-09-14T02:14:34;17.10;99.90
5786;DHT22;2919;48.630;9.000;2022-09-14T02:17:00;17.20;99.90
5786;DHT22;2919;48.630;9.000;2022-09-14T02:19:31;17.20;99.90
5786;DHT22;2919;48.630;9.000;2022-09-14T02:22:00;17.20;99.90
5786;DHT22;2919;48.630;9.000;2022-09-14T02:24:27;17.20;99.90
5786;DHT22;2919;48.630;9.000;2022-09-14T02:26:54;17.20;99.90
5786;DHT22;2919;48.630;9.000;2022-09-14T02:29:21;17.20;99.90
5786;DHT22;2919;48.630;9.000;2022-09-14T02:31:56;17.20;99.90
5786;DHT22;2919;48.630;9.000;2022-09-14T02:34:26;17.20;99.90
5786;DHT22;2919;48.630;9.000;2022-09-14T02:37:10;17.20;99.90
5786;DHT22;2919;48.630;9.000;2022-09-14T02:53:35;17.10;99.90
5786;DHT22;2919;48.630;9.000;2022-09-14T02:56:04;17.20;99.90
5786;DHT22;2919;48.630;9.000;2022-09-14T02:58:37;17.10;99.90
5786;DHT22;2919;48.630;9.000;2022-09-14T03:01:04;17.10;99.90
5786;DHT22;2919;48.630;9.000;2022-09-14T03:03:30;17.20;99.90
5786;DHT22;2919;48.630;9.000;2022-09-14T03:05:56;17.10;99.90
5786;DHT22;2919;48.630;9.000;2022-09-14T03:08:23;17.20;99.90
5786;DHT22;2919;48.630;9.000;2022-09-14T03:10:49;17.20;99.90
5786;DHT22;2919;48.630;9.000;2022-09-14T03:13:15;17.20;99.90
5786;DHT22;2919;48.630;9.000;2022-09-14T03:15:41;17.10;99.90
5786;DHT22;2919;48.630;9.000;2022-09-14T03:18:07;17.10;99.90
5786;DHT22;2919;48.630;9.000;2022-09-14T03:20:33;17.00;99.90
5786;DHT22;2919;48.630;9.000;2022-09-14T03:23:00;17.10;99.90
5786;DHT22;2919;48.630;9.000;2022-09-14T03:25:26;17.10;99.90
5786;DHT22;2919;48.630;9.000;2022-09-14T03:27:57;17.10;99.90
5786;DHT22;2919;48.630;9.000;2022-09-14T03:30:23;17.10;99.90
5786;DHT22;2919;48.630;9.000;2022-09-14T03:32:49;17.10;99.90
5786;DHT22;2919;48.630;9.000;2022-09-14T03:35:16;17.10;99.90
5786;DHT22;2919;48.630;9.000;2022-09-14T03:37:43;17.10;99.90
5786;DHT22;2919;48.630;9.000;2022-09-14T03:40:10;17.10;99.90
5786;DHT22;2919;48.630;9.000;2022-09-14T03:42:43;17.10;99.90
5786;DHT22;2919;48.630;9.000;2022-09-14T03:45:10;17.10;99.90
5786;DHT22;2919;48.630;9.000;2022-09-14T03:47:36;17.10;99.90
5786;DHT22;2919;48.630;9.000;2022-09-14T03:50:02;17.10;99.90
5786;DHT22;2919;48.630;9.000;2022-09-14T03:52:27;17.10;99.90
5786;DHT22;2919;48.630;9.000;2022-09-14T03:54:53;17.10;99.90
5786;DHT22;2919;48.630;9.000;2022-09-14T03:57:18;17.10;99.90
5786;DHT22;2919;48.630;9.000;2022-09-14T03:59:44;17.10;99.90
5786;DHT22;2919;48.630;9.000;2022-09-14T04:02:10;17.10;99.90
5786;DHT22;2919;48.630;9.000;2022-09-14T04:04:36;17.10;99.90
5786;DHT22;2919;48.630;9.000;2022-09-14T04:07:02;17.10;99.90
5786;DHT22;2919;48.630;9.000;2022-09-14T04:09:27;17.10;99.90
5786;DHT22;2919;48.630;9.000;2022-09-14T04:11:53;17.10;99.90
5786;DHT22;2919;48.630;9.000;2022-09-14T04:14:18;17.10;99.90
5786;DHT22;2919;48.630;9.000;2022-09-14T04:16:44;17.10;99.90
5786;DHT22;2919;48.630;9.000;2022-09-14T04:19:10;17.10;99.90
5786;DHT22;2919;48.630;9.000;2022-09-14T04:21:36;17.10;99.90
5786;DHT22;2919;48.630;9.000;2022-09-14T04:24:02;17.10;99.90
5786;DHT22;2919;48.630;9.000;2022-09-14T04:26:29;17.10;99.90
5786;DHT22;2919;48.630;9.000;2022-09-14T04:28:55;17.10;99.90
5786;DHT22;2919;48.630;9.000;2022-09-14T04:31:21;17.20;99.90
5786;DHT22;2919;48.630;9.000;2022-09-14T04:33:47;17.20;99.90
5786;DHT22;2919;48.630;9.000;2022-09-14T04:36:17;17.20;99.90
5786;DHT22;2919;48.630;9.000;2022-09-14T04:38:43;17.20;99.90
5786;DHT22;2919;48.630;9.000;2022-09-14T04:41:15;17.20;99.90
5786;DHT22;2919;48.630;9.000;2022-09-14T04:43:41;17.20;99.90
5786;DHT22;2919;48.630;9.000;2022-09-14T04:46:11;17.20;99.90
5786;DHT22;2919;48.630;9.000;2022-09-14T04:48:37;17.20;99.90
5786;DHT22;2919;48.630;9.000;2022-09-14T04:51:04;17.20;99.90
5786;DHT22;2919;48.630;9.000;2022-09-14T04:53:33;17.20;99.90
5786;DHT22;2919;48.630;9.000;2022-09-14T04:56:00;17.20;99.90
5786;DHT22;2919;48.630;9.000;2022-09-14T04:58:26;17.30;99.90
5786;DHT22;2919;48.630;9.000;2022-09-14T05:00:54;17.30;99.90
5786;DHT22;2919;48.630;9.000;2022-09-14T05:03:20;17.30;99.90
5786;DHT22;2919;48.630;9.000;2022-09-14T05:05:46;17.40;99.90
5786;DHT22;2919;48.630;9.000;2022-09-14T05:08:12;17.40;99.90
5786;DHT22;2919;48.630;9.000;2022-09-14T05:10:38;17.40;99.90
5786;DHT22;2919;48.630;9.000;2022-09-14T05:13:03;17.40;99.90
5786;DHT22;2919;48.630;9.000;2022-09-14T05:15:29;17.40;99.90
5786;DHT22;2919;48.630;9.000;2022-09-14T05:17:54;17.40;99.90
5786;DHT22;2919;48.630;9.000;2022-09-14T05:20:20;17.50;99.90
5786;DHT22;2919;48.630;9.000;2022-09-14T05:22:49;17.50;99.90
5786;DHT22;2919;48.630;9.000;2022-09-14T05:25:15;17.50;99.90
5786;DHT22;2919;48.630;9.000;2022-09-14T05:27:40;17.50;99.90
5786;DHT22;2919;48.630;9.000;2022-09-14T05:30:07;17.50;99.90
5786;DHT22;2919;48.630;9.000;2022-09-14T05:32:32;17.60;99.90
5786;DHT22;2919;48.630;9.000;2022-09-14T05:34:58;17.60;99.90
5786;DHT22;2919;48.630;9.000;2022-09-14T05:37:23;17.60;99.90
5786;DHT22;2919;48.630;9.000;2022-09-14T05:39:49;17.70;99.90
5786;DHT22;2919;48.630;9.000;2022-09-14T05:42:15;17.70;99.90
5786;DHT22;2919;48.630;9.000;2022-09-14T05:44:40;17.70;99.90
5786;DHT22;2919;48.630;9.000;2022-09-14T05:47:06;17.70;99.90
5786;DHT22;2919;48.630;9.000;2022-09-14T05:49:31;17.70;99.90
5786;DHT22;2919;48.630;9.000;2022-09-14T05:51:57;17.70;99.90
5786;DHT22;2919;48.630;9.000;2022-09-14T05:54:22;17.70;99.90
5786;DHT22;2919;48.630;9.000;2022-09-14T05:56:48;17.70;99.90
5786;DHT22;2919;48.630;9.000;2022-09-14T05:59:14;17.80;99.90
5786;DHT22;2919;48.630;9.000;2022-09-14T06:01:39;17.80;99.90
5786;DHT22;2919;48.630;9.000;2022-09-14T06:04:05;17.80;99.90
5786;DHT22;2919;48.630;9.000;2022-09-14T06:06:33;17.80;99.90
5786;DHT22;2919;48.630;9.000;2022-09-14T06:08:59;17.80;99.90
5786;DHT22;2919;48.630;9.000;2022-09-14T06:11:28;17.90;99.90
5786;DHT22;2919;48.630;9.000;2022-09-14T06:13:55;17.90;99.90
5786;DHT22;2919;48.630;9.000;2022-09-14T06:16:22;17.90;99.90
5786;DHT22;2919;48.630;9.000;2022-09-14T06:18:48;18.00;99.90
5786;DHT22;2919;48.630;9.000;2022-09-14T06:21:15;18.00;99.90
5786;DHT22;2919;48.630;9.000;2022-09-14T06:23:42;18.10;99.90
5786;DHT22;2919;48.630;9.000;2022-09-14T06:26:08;18.10;99.90
5786;DHT22;2919;48.630;9.000;2022-09-14T06:28:34;18.20;99.90
5786;DHT22;2919;48.630;9.000;2022-09-14T06:31:01;18.30;99.90
5786;DHT22;2919;48.630;9.000;2022-09-14T06:33:29;18.30;99.90
5786;DHT22;2919;48.630;9.000;2022-09-14T06:35:57;18.30;99.90
5786;DHT22;2919;48.630;9.000;2022-09-14T06:38:23;18.40;99.90
5786;DHT22;2919;48.630;9.000;2022-09-14T06:40:57;18.40;99.90
5786;DHT22;2919;48.630;9.000;2022-09-14T06:43:25;18.40;99.90
5786;DHT22;2919;48.630;9.000;2022-09-14T06:45:58;18.50;99.90
5786;DHT22;2919;48.630;9.000;2022-09-14T06:48:26;18.50;99.90
5786;DHT22;2919;48.630;9.000;2022-09-14T06:50:51;18.50;99.90
5786;DHT22;2919;48.630;9.000;2022-09-14T06:53:17;18.60;99.90
5786;DHT22;2919;48.630;9.000;2022-09-14T06:55:43;18.60;99.90
5786;DHT22;2919;48.630;9.000;2022-09-14T06:58:12;18.60;99.90
5786;DHT22;2919;48.630;9.000;2022-09-14T07:00:37;18.70;99.90
5786;DHT22;2919;48.630;9.000;2022-09-14T07:03:03;18.80;99.90
5786;DHT22;2919;48.630;9.000;2022-09-14T07:05:29;18.80;99.90
5786;DHT22;2919;48.630;9.000;2022-09-14T07:07:56;18.90;99.90
5786;DHT22;2919;48.630;9.000;2022-09-14T07:10:22;18.90;99.90
5786;DHT22;2919;48.630;9.000;2022-09-14T07:12:47;19.00;99.90
5786;DHT22;2919;48.630;9.000;2022-09-14T07:15:13;19.20;99.90
5786;DHT22;2919;48.630;9.000;2022-09-14T07:17:44;19.20;99.90
5786;DHT22;2919;48.630;9.000;2022-09-14T07:20:09;19.20;99.90
5786;DHT22;2919;48.630;9.000;2022-09-14T07:22:35;19.30;99.90
5786;DHT22;2919;48.630;9.000;2022-09-14T07:25:01;19.20;99.90
5786;DHT22;2919;48.630;9.000;2022-09-14T07:27:27;19.30;99.90
5786;DHT22;2919;48.630;9.000;2022-09-14T07:29:52;19.40;99.90
5786;DHT22;2919;48.630;9.000;2022-09-14T07:32:18;19.60;99.90
5786;DHT22;2919;48.630;9.000;2022-09-14T07:34:44;19.90;99.90
5786;DHT22;2919;48.630;9.000;2022-09-14T07:37:09;20.20;99.90
5786;DHT22;2919;48.630;9.000;2022-09-14T07:39:35;20.60;99.90
5786;DHT22;2919;48.630;9.000;2022-09-14T07:42:01;20.80;99.90
5786;DHT22;2919;48.630;9.000;2022-09-14T07:44:27;21.20;99.90
5786;DHT22;2919;48.630;9.000;2022-09-14T07:46:52;21.40;99.90
5786;DHT22;2919;48.630;9.000;2022-09-14T07:49:18;21.70;99.90
5786;DHT22;2919;48.630;9.000;2022-09-14T07:51:44;22.00;99.90
5786;DHT22;2919;48.630;9.000;2022-09-14T07:54:12;22.00;99.90
5786;DHT22;2919;48.630;9.000;2022-09-14T07:56:38;21.80;99.90
5786;DHT22;2919;48.630;9.000;2022-09-14T07:59:04;21.90;99.90
5786;DHT22;2919;48.630;9.000;2022-09-14T08:01:30;22.30;99.90
5786;DHT22;2919;48.630;9.000;2022-09-14T08:04:00;22.80;99.90
5786;DHT22;2919;48.630;9.000;2022-09-14T08:06:27;22.90;99.90
5786;DHT22;2919;48.630;9.000;2022-09-14T08:08:54;23.00;99.90
5786;DHT22;2919;48.630;9.000;2022-09-14T08:13:49;22.60;99.90
5786;DHT22;2919;48.630;9.000;2022-09-14T08:16:16;22.30;99.90
5786;DHT22;2919;48.630;9.000;2022-09-14T08:18:43;22.30;99.90
5786;DHT22;2919;48.630;9.000;2022-09-14T08:21:14;22.50;99.90
5786;DHT22;2919;48.630;9.000;2022-09-14T08:23:41;22.60;99.90
5786;DHT22;2919;48.630;9.000;2022-09-14T08:26:16;22.60;99.90
5786;DHT22;2919;48.630;9.000;2022-09-14T08:28:42;22.60;99.90
5786;DHT22;2919;48.630;9.000;2022-09-14T08:31:10;22.50;99.90
5786;DHT22;2919;48.630;9.000;2022-09-14T08:33:39;22.40;99.90
5786;DHT22;2919;48.630;9.000;2022-09-14T08:36:06;22.10;99.90
5786;DHT22;2919;48.630;9.000;2022-09-14T08:38:34;21.80;99.90
5786;DHT22;2919;48.630;9.000;2022-09-14T08:43:34;21.50;99.90
5786;DHT22;2919;48.630;9.000;2022-09-14T08:46:07;21.40;99.90
5786;DHT22;2919;48.630;9.000;2022-09-14T08:48:46;21.40;99.90
5786;DHT22;2919;48.630;9.000;2022-09-14T08:51:13;21.50;99.90
5786;DHT22;2919;48.630;9.000;2022-09-14T08:53:40;21.80;99.90
5786;DHT22;2919;48.630;9.000;2022-09-14T08:56:12;22.10;99.90
5786;DHT22;2919;48.630;9.000;2022-09-14T09:07:44;24.30;99.90
5786;DHT22;2919;48.630;9.000;2022-09-14T09:10:13;24.30;99.90
5786;DHT22;2919;48.630;9.000;2022-09-14T09:12:47;24.60;99.90
5786;DHT22;2919;48.630;9.000;2022-09-14T09:15:44;24.90;99.90
5786;DHT22;2919;48.630;9.000;2022-09-14T09:20:51;25.00;99.90
5786;DHT22;2919;48.630;9.000;2022-09-14T09:23:20;25.20;99.90
5786;DHT22;2919;48.630;9.000;2022-09-14T09:28:29;24.60;99.90
5786;DHT22;2919;48.630;9.000;2022-09-14T09:31:01;24.60;99.90
5786;DHT22;2919;48.630;9.000;2022-09-14T09:33:30;24.80;99.90
5786;DHT22;2919;48.630;9.000;2022-09-14T09:35:56;24.80;99.90
5786;DHT22;2919;48.630;9.000;2022-09-14T09:38:25;24.40;99.90
5786;DHT22;2919;48.630;9.000;2022-09-14T09:41:07;24.20;99.90
5786;DHT22;2919;48.630;9.000;2022-09-14T09:46:21;24.40;99.90
5786;DHT22;2919;48.630;9.000;2022-09-14T09:48:46;24.40;99.90
5786;DHT22;2919;48.630;9.000;2022-09-14T09:51:15;24.40;99.90
5786;DHT22;2919;48.630;9.000;2022-09-14T09:53:55;24.40;99.90
5786;DHT22;2919;48.630;9.000;2022-09-14T09:56:40;24.40;99.90
5786;DHT22;2919;48.630;9.000;2022-09-14T09:59:34;24.60;99.90
5786;DHT22;2919;48.630;9.000;2022-09-14T10:02:33;24.70;99.90
5786;DHT22;2919;48.630;9.000;2022-09-14T10:07:59;24.50;99.90
5786;DHT22;2919;48.630;9.000;2022-09-14T10:13:02;24.30;99.90
5786;DHT22;2919;48.630;9.000;2022-09-14T10:15:34;24.30;99.90
5786;DHT22;2919;48.630;9.000;2022-09-14T10:21:03;24.00;99.90
5786;DHT22;2919;48.630;9.000;2022-09-14T10:23:29;23.90;99.90
5786;DHT22;2919;48.630;9.000;2022-09-14T10:28:39;23.90;99.90
5786;DHT22;2919;48.630;9.000;2022-09-14T10:33:39;24.00;99.90
5786;DHT22;2919;48.630;9.000;2022-09-14T10:36:29;24.10;99.90
5786;DHT22;2919;48.630;9.000;2022-09-14T10:52:21;24.40;99.90
5786;DHT22;2919;48.630;9.000;2022-09-14T10:57:24;24.60;99.90
5786;DHT22;2919;48.630;9.000;2022-09-14T11:00:04;24.70;99.90
5786;DHT22;2919;48.630;9.000;2022-09-14T11:05:38;24.90;99.90
5786;DHT22;2919;48.630;9.000;2022-09-14T11:08:30;25.10;99.90
5786;DHT22;2919;48.630;9.000;2022-09-14T11:11:36;25.30;99.90
5786;DHT22;2919;48.630;9.000;2022-09-14T11:25:56;25.50;99.60
5786;DHT22;2919;48.630;9.000;2022-09-14T11:31:14;25.30;99.70
5786;DHT22;2919;48.630;9.000;2022-09-14T11:34:02;25.30;99.90
5786;DHT22;2919;48.630;9.000;2022-09-14T11:36:40;25.30;99.80
5786;DHT22;2919;48.630;9.000;2022-09-14T11:39:18;25.30;99.70
5786;DHT22;2919;48.630;9.000;2022-09-14T11:41:47;25.10;99.60
5786;DHT22;2919;48.630;9.000;2022-09-14T11:49:46;25.20;99.50
5786;DHT22;2919;48.630;9.000;2022-09-14T11:52:19;25.00;99.50
5786;DHT22;2919;48.630;9.000;2022-09-14T11:54:46;25.00;99.30
5786;DHT22;2919;48.630;9.000;2022-09-14T11:57:17;24.90;99.50
5786;DHT22;2919;48.630;9.000;2022-09-14T11:59:47;24.90;99.90
5786;DHT22;2919;48.630;9.000;2022-09-14T12:10:20;24.40;99.90
5786;DHT22;2919;48.630;9.000;2022-09-14T12:15:37;24.10;99.90
5786;DHT22;2919;48.630;9.000;2022-09-14T12:23:12;23.30;99.90
5786;DHT22;2919;48.630;9.000;2022-09-14T12:36:11;22.30;99.90
5786;DHT22;2919;48.630;9.000;2022-09-14T12:59:54;20.40;99.90
5786;DHT22;2919;48.630;9.000;2022-09-14T13:05:26;20.20;99.90
5786;DHT22;2919;48.630;9.000;2022-09-14T13:07:53;20.00;99.90
5786;DHT22;2919;48.630;9.000;2022-09-14T13:10:35;20.00;99.90
5786;DHT22;2919;48.630;9.000;2022-09-14T13:13:05;19.90;99.90
5786;DHT22;2919;48.630;9.000;2022-09-14T13:15:45;19.80;99.90
5786;DHT22;2919;48.630;9.000;2022-09-14T13:20:52;19.60;99.90
5786;DHT22;2919;48.630;9.000;2022-09-14T13:23:23;19.50;99.90
5786;DHT22;2919;48.630;9.000;2022-09-14T13:25:51;19.50;99.90
5786;DHT22;2919;48.630;9.000;2022-09-14T13:28:18;19.40;99.90
5786;DHT22;2919;48.630;9.000;2022-09-14T13:30:59;19.40;99.90
5786;DHT22;2919;48.630;9.000;2022-09-14T13:33:27;19.40;99.90
5786;DHT22;2919;48.630;9.000;2022-09-14T13:35:55;19.40;99.90
5786;DHT22;2919;48.630;9.000;2022-09-14T13:38:24;19.40;99.90
5786;DHT22;2919;48.630;9.000;2022-09-14T13:40:53;19.40;99.90
5786;DHT22;2919;48.630;9.000;2022-09-14T13:43:20;19.40;99.90
5786;DHT22;2919;48.630;9.000;2022-09-14T13:45:48;19.40;99.90
5786;DHT22;2919;48.630;9.000;2022-09-14T13:48:16;19.40;99.90
5786;DHT22;2919;48.630;9.000;2022-09-14T13:50:47;19.30;99.90
5786;DHT22;2919;48.630;9.000;2022-09-14T13:59:17;19.10;99.90
5786;DHT22;2919;48.630;9.000;2022-09-14T14:01:58;19.10;99.90
5786;DHT22;2919;48.630;9.000;2022-09-14T14:04:33;19.20;99.90
5786;DHT22;2919;48.630;9.000;2022-09-14T14:12:09;19.20;99.90
5786;DHT22;2919;48.630;9.000;2022-09-14T14:14:35;19.20;99.90
5786;DHT22;2919;48.630;9.000;2022-09-14T14:19:50;19.20;99.90
5786;DHT22;2919;48.630;9.000;2022-09-14T14:24:47;19.10;99.90
5786;DHT22;2919;48.630;9.000;2022-09-14T14:27:39;19.10;99.90
5786;DHT22;2919;48.630;9.000;2022-09-14T14:30:18;19.00;99.90
5786;DHT22;2919;48.630;9.000;2022-09-14T14:32:52;19.00;99.90
5786;DHT22;2919;48.630;9.000;2022-09-14T14:35:24;19.00;99.90
5786;DHT22;2919;48.630;9.000;2022-09-14T14:37:50;19.00;99.90
5786;DHT22;2919;48.630;9.000;2022-09-14T14:40:17;18.90;99.90
5786;DHT22;2919;48.630;9.000;2022-09-14T14:42:43;18.80;99.90
5786;DHT22;2919;48.630;9.000;2022-09-14T14:45:14;18.80;99.90
5786;DHT22;2919;48.630;9.000;2022-09-14T14:47:41;18.60;99.90
5786;DHT22;2919;48.630;9.000;2022-09-14T14:50:22;18.50;99.90
5786;DHT22;2919;48.630;9.000;2022-09-14T14:52:48;18.40;99.90
5786;DHT22;2919;48.630;9.000;2022-09-14T14:55:16;18.30;99.90
5786;DHT22;2919;48.630;9.000;2022-09-14T14:57:41;18.20;99.90
5786;DHT22;2919;48.630;9.000;2022-09-14T15:00:19;18.20;99.90
5786;DHT22;2919;48.630;9.000;2022-09-14T15:02:45;18.10;99.90
5786;DHT22;2919;48.630;9.000;2022-09-14T15:05:11;18.10;99.90
5786;DHT22;2919;48.630;9.000;2022-09-14T15:07:37;18.00;99.90
5786;DHT22;2919;48.630;9.000;2022-09-14T15:10:04;18.00;99.90
5786;DHT22;2919;48.630;9.000;2022-09-14T15:12:30;17.90;99.90
5786;DHT22;2919;48.630;9.000;2022-09-14T15:14:57;17.90;99.90
5786;DHT22;2919;48.630;9.000;2022-09-14T15:17:23;17.90;99.90
5786;DHT22;2919;48.630;9.000;2022-09-14T15:19:48;17.90;99.90
5786;DHT22;2919;48.630;9.000;2022-09-14T15:22:14;17.90;99.90
5786;DHT22;2919;48.630;9.000;2022-09-14T15:24:39;17.90;99.90
5786;DHT22;2919;48.630;9.000;2022-09-14T15:27:05;18.00;99.90
5786;DHT22;2919;48.630;9.000;2022-09-14T15:29:31;18.10;99.90
5786;DHT22;2919;48.630;9.000;2022-09-14T15:31:57;18.10;99.90
5786;DHT22;2919;48.630;9.000;2022-09-14T15:34:22;18.10;99.90
5786;DHT22;2919;48.630;9.000;2022-09-14T15:36:51;18.10;99.90
5786;DHT22;2919;48.630;9.000;2022-09-14T15:39:20;18.00;99.90
5786;DHT22;2919;48.630;9.000;2022-09-14T15:41:45;18.10;99.90
5786;DHT22;2919;48.630;9.000;2022-09-14T15:44:12;18.10;99.90
5786;DHT22;2919;48.630;9.000;2022-09-14T15:46:38;18.30;99.90
5786;DHT22;2919;48.630;9.000;2022-09-14T15:49:06;18.40;99.90
5786;DHT22;2919;48.630;9.000;2022-09-14T15:51:32;18.50;99.90
5786;DHT22;2919;48.630;9.000;2022-09-14T15:53:59;18.60;99.90
5786;DHT22;2919;48.630;9.000;2022-09-14T15:56:25;18.60;99.90
5786;DHT22;2919;48.630;9.000;2022-09-14T15:58:51;18.70;99.90
5786;DHT22;2919;48.630;9.000;2022-09-14T16:01:18;18.70;99.90
5786;DHT22;2919;48.630;9.000;2022-09-14T16:03:44;18.70;99.90
5786;DHT22;2919;48.630;9.000;2022-09-14T16:06:12;18.60;99.90
5786;DHT22;2919;48.630;9.000;2022-09-14T16:08:38;18.70;99.90
5786;DHT22;2919;48.630;9.000;2022-09-14T16:11:05;18.70;99.90
5786;DHT22;2919;48.630;9.000;2022-09-14T16:13:32;18.60;99.90
5786;DHT22;2919;48.630;9.000;2022-09-14T16:16:11;18.60;99.90
5786;DHT22;2919;48.630;9.000;2022-09-14T16:18:37;18.60;99.90
5786;DHT22;2919;48.630;9.000;2022-09-14T16:21:14;18.70;99.90
5786;DHT22;2919;48.630;9.000;2022-09-14T16:23:47;18.60;99.90
5786;DHT22;2919;48.630;9.000;2022-09-14T16:26:16;18.60;99.90
5786;DHT22;2919;48.630;9.000;2022-09-14T16:28:44;18.60;99.90
5786;DHT22;2919;48.630;9.000;2022-09-14T16:31:19;18.60;99.90
5786;DHT22;2919;48.630;9.000;2022-09-14T16:33:46;18.70;99.90
5786;DHT22;2919;48.630;9.000;2022-09-14T16:36:18;18.80;99.90
5786;DHT22;2919;48.630;9.000;2022-09-14T16:38:44;18.80;99.90
5786;DHT22;2919;48.630;9.000;2022-09-14T16:41:11;18.80;99.90
5786;DHT22;2919;48.630;9.000;2022-09-14T16:43:37;18.80;99.90
5786;DHT22;2919;48.630;9.000;2022-09-14T16:46:09;18.70;99.90
5786;DHT22;2919;48.630;9.000;2022-09-14T16:48:37;18.70;99.90
5786;DHT22;2919;48.630;9.000;2022-09-14T16:51:04;18.70;99.90
5786;DHT22;2919;48.630;9.000;2022-09-14T16:53:32;18.70;99.90
5786;DHT22;2919;48.630;9.000;2022-09-14T16:56:08;18.60;99.90
5786;DHT22;2919;48.630;9.000;2022-09-14T16:58:35;18.60;99.90
5786;DHT22;2919;48.630;9.000;2022-09-14T17:01:15;18.60;99.90
5786;DHT22;2919;48.630;9.000;2022-09-14T17:03:43;18.50;99.90
5786;DHT22;2919;48.630;9.000;2022-09-14T17:06:14;18.40;99.90
5786;DHT22;2919;48.630;9.000;2022-09-14T17:08:41;18.40;99.90
5786;DHT22;2919;48.630;9.000;2022-09-14T17:11:08;18.40;99.90
5786;DHT22;2919;48.630;9.000;2022-09-14T17:13:34;18.40;99.90
5786;DHT22;2919;48.630;9.000;2022-09-14T17:16:08;18.30;99.90
5786;DHT22;2919;48.630;9.000;2022-09-14T17:18:36;18.30;99.90
5786;DHT22;2919;48.630;9.000;2022-09-14T17:21:05;18.20;99.90
5786;DHT22;2919;48.630;9.000;2022-09-14T17:23:31;18.20;99.90
5786;DHT22;2919;48.630;9.000;2022-09-14T17:25:57;18.10;99.90
5786;DHT22;2919;48.630;9.000;2022-09-14T17:28:26;18.10;99.90
5786;DHT22;2919;48.630;9.000;2022-09-14T17:30:53;18.00;99.90
5786;DHT22;2919;48.630;9.000;2022-09-14T17:33:20;18.00;99.90
5786;DHT22;2919;48.630;9.000;2022-09-14T17:35:50;17.90;99.90
5786;DHT22;2919;48.630;9.000;2022-09-14T17:38:17;17.80;99.90
5786;DHT22;2919;48.630;9.000;2022-09-14T17:40:43;17.80;99.90
5786;DHT22;2919;48.630;9.000;2022-09-14T17:43:10;17.80;99.90
5786;DHT22;2919;48.630;9.000;2022-09-14T17:45:37;17.70;99.90
5786;DHT22;2919;48.630;9.000;2022-09-14T17:48:04;17.70;99.90
5786;DHT22;2919;48.630;9.000;2022-09-14T17:50:30;17.60;99.90
5786;DHT22;2919;48.630;9.000;2022-09-14T17:52:56;17.60;99.90
5786;DHT22;2919;48.630;9.000;2022-09-14T17:55:21;17.60;99.90
5786;DHT22;2919;48.630;9.000;2022-09-14T17:57:47;17.50;99.90
5786;DHT22;2919;48.630;9.000;2022-09-14T18:00:13;17.50;99.90
5786;DHT22;2919;48.630;9.000;2022-09-14T18:02:39;17.50;99.90
5786;DHT22;2919;48.630;9.000;2022-09-14T18:05:05;17.50;99.90
5786;DHT22;2919;48.630;9.000;2022-09-14T18:07:31;17.50;99.90
5786;DHT22;2919;48.630;9.000;2022-09-14T18:09:57;17.50;99.90
5786;DHT22;2919;48.630;9.000;2022-09-14T18:12:23;17.60;99.90
5786;DHT22;2919;48.630;9.000;2022-09-14T18:14:48;17.60;99.90
5786;DHT22;2919;48.630;9.000;2022-09-14T18:17:14;17.60;99.90
5786;DHT22;2919;48.630;9.000;2022-09-14T18:19:40;17.60;99.90
5786;DHT22;2919;48.630;9.000;2022-09-14T18:22:07;17.60;99.90
5786;DHT22;2919;48.630;9.000;2022-09-14T18:24:33;17.60;99.90
5786;DHT22;2919;48.630;9.000;2022-09-14T18:26:58;17.60;99.90
5786;DHT22;2919;48.630;9.000;2022-09-14T18:29:24;17.60;99.90
5786;DHT22;2919;48.630;9.000;2022-09-14T18:31:51;17.50;99.90
5786;DHT22;2919;48.630;9.000;2022-09-14T18:34:18;17.50;99.90
5786;DHT22;2919;48.630;9.000;2022-09-14T18:36:43;17.50;99.90
5786;DHT22;2919;48.630;9.000;2022-09-14T18:39:10;17.50;99.90
5786;DHT22;2919;48.630;9.000;2022-09-14T18:41:36;17.50;99.90
5786;DHT22;2919;48.630;9.000;2022-09-14T18:44:02;17.50;99.90
5786;DHT22;2919;48.630;9.000;2022-09-14T18:46:28;17.40;99.90
5786;DHT22;2919;48.630;9.000;2022-09-14T18:48:56;17.40;99.90
5786;DHT22;2919;48.630;9.000;2022-09-14T18:51:22;17.30;99.90
5786;DHT22;2919;48.630;9.000;2022-09-14T18:53:48;17.30;99.90
5786;DHT22;2919;48.630;9.000;2022-09-14T18:56:15;17.30;99.90
5786;DHT22;2919;48.630;9.000;2022-09-14T18:58:43;17.20;99.90
5786;DHT22;2919;48.630;9.000;2022-09-14T19:01:10;17.20;99.90
5786;DHT22;2919;48.630;9.000;2022-09-14T19:03:37;17.30;99.90
5786;DHT22;2919;48.630;9.000;2022-09-14T19:06:08;17.20;99.90
5786;DHT22;2919;48.630;9.000;2022-09-14T19:08:35;17.20;99.90
5786;DHT22;2919;48.630;9.000;2022-09-14T19:11:10;17.30;99.90